aviador You're here:

KBIX Decoded Metar

BILOXI in MS, USA
Report Time2017-09-26 11:56:00
UTC Time2017-09-26 12:47:47
Flight Rules vfr VFR
Wind070° at 06 kt
W.Decomp.*RWY 03: 4.7 kt HW 3.8 kt RCW
W.Rank070° ranks 20
Current wind is above 070° avg. (5.7)
Visibility9999 m
Phenomena:N/A
Clouds:N/A
Expected CloudBase > 400 ft AGL from Temp-Dew spread
CeilingNone
Temp23°C (ISA +8)
Dew Point22°C (94% RH)
QNH1013 hPa
Density Alt1,319 ft
Elevation33 ft
Report Wrong Elevation
Raw Report
KBIX 261156Z AUTO 07006KT 10SM CLR 23/22 A2992 RMK AO2 SLP135
T02260217 10229 20223 53012 CHINO RWY03 $=

Extra information for KBIX:More info

Metar Taf Metar & Taf Last 4 Metars F.Rules Stats Wind Profile Meteogram Temp Stats Airport Information Weather charts Add Link Nearby VenuesMetar ALERT Operation Metar Decoded Social comments

AIRNAV info for KBIX